sensor_id;sensor_type;location;lat;lon;timestamp;pressure;altitude;pressure_sealevel;temperature;humidity
79577;BME280;69045;48.136;11.386;2024-02-14T00:00:30;95757.50;;;6.87;59.66
79577;BME280;69045;48.136;11.386;2024-02-14T00:02:58;95752.47;;;6.85;58.71
79577;BME280;69045;48.136;11.386;2024-02-14T00:05:27;95748.22;;;6.84;58.39
79577;BME280;69045;48.136;11.386;2024-02-14T00:07:55;95755.22;;;6.83;59.15
79577;BME280;69045;48.136;11.386;2024-02-14T00:10:24;95757.31;;;6.88;58.80
79577;BME280;69045;48.136;11.386;2024-02-14T00:12:52;95758.72;;;6.91;58.64
79577;BME280;69045;48.136;11.386;2024-02-14T00:15:21;95752.34;;;6.93;58.29
79577;BME280;69045;48.136;11.386;2024-02-14T00:17:50;95752.72;;;6.90;58.58
79577;BME280;69045;48.136;11.386;2024-02-14T00:20:18;95754.34;;;6.91;58.17
79577;BME280;69045;48.136;11.386;2024-02-14T00:22:55;95750.28;;;6.89;58.95
79577;BME280;69045;48.136;11.386;2024-02-14T00:25:23;95754.34;;;6.91;59.08
79577;BME280;69045;48.136;11.386;2024-02-14T00:27:52;95754.59;;;6.96;58.68
79577;BME280;69045;48.136;11.386;2024-02-14T00:30:21;95756.84;;;6.99;57.84
79577;BME280;69045;48.136;11.386;2024-02-14T00:33:10;95752.06;;;7.03;58.49
79577;BME280;69045;48.136;11.386;2024-02-14T00:35:38;95748.28;;;7.05;57.97
79577;BME280;69045;48.136;11.386;2024-02-14T00:38:08;95753.31;;;7.07;58.20
79577;BME280;69045;48.136;11.386;2024-02-14T00:40:36;95752.59;;;7.13;58.31
79577;BME280;69045;48.136;11.386;2024-02-14T00:43:04;95755.00;;;7.15;57.64
79577;BME280;69045;48.136;11.386;2024-02-14T00:45:33;95750.41;;;7.17;57.46
79577;BME280;69045;48.136;11.386;2024-02-14T00:48:01;95756.06;;;7.20;57.28
79577;BME280;69045;48.136;11.386;2024-02-14T00:50:31;95749.47;;;7.24;57.88
79577;BME280;69045;48.136;11.386;2024-02-14T00:53:00;95749.94;;;7.28;57.81
79577;BME280;69045;48.136;11.386;2024-02-14T00:55:30;95751.00;;;7.33;56.76
79577;BME280;69045;48.136;11.386;2024-02-14T00:57:59;95751.25;;;7.38;57.41
79577;BME280;69045;48.136;11.386;2024-02-14T01:00:27;95755.09;;;7.43;57.26
79577;BME280;69045;48.136;11.386;2024-02-14T01:02:55;95765.31;;;7.44;56.56
79577;BME280;69045;48.136;11.386;2024-02-14T01:05:24;95759.94;;;7.46;56.38
79577;BME280;69045;48.136;11.386;2024-02-14T01:07:53;95771.78;;;7.48;56.62
79577;BME280;69045;48.136;11.386;2024-02-14T01:10:22;95763.78;;;7.50;56.33
79577;BME280;69045;48.136;11.386;2024-02-14T01:12:51;95756.56;;;7.52;56.51
79577;BME280;69045;48.136;11.386;2024-02-14T01:15:19;95764.84;;;7.55;56.11
79577;BME280;69045;48.136;11.386;2024-02-14T01:17:48;95760.22;;;7.57;56.29
79577;BME280;69045;48.136;11.386;2024-02-14T01:20:18;95760.06;;;7.59;56.17
79577;BME280;69045;48.136;11.386;2024-02-14T01:22:47;95758.88;;;7.61;55.89
79577;BME280;69045;48.136;11.386;2024-02-14T01:25:20;95757.53;;;7.65;56.11
79577;BME280;69045;48.136;11.386;2024-02-14T01:27:48;95755.31;;;7.69;56.00
79577;BME280;69045;48.136;11.386;2024-02-14T01:30:22;95764.75;;;7.70;56.42
79577;BME280;69045;48.136;11.386;2024-02-14T01:32:51;95761.53;;;7.68;55.68
79577;BME280;69045;48.136;11.386;2024-02-14T01:35:20;95761.97;;;7.72;55.60
79577;BME280;69045;48.136;11.386;2024-02-14T01:37:48;95754.78;;;7.74;56.13
79577;BME280;69045;48.136;11.386;2024-02-14T01:40:19;95756.81;;;7.78;55.57
79577;BME280;69045;48.136;11.386;2024-02-14T01:42:55;95756.81;;;7.78;55.44
79577;BME280;69045;48.136;11.386;2024-02-14T01:45:26;95759.25;;;7.80;56.10
79577;BME280;69045;48.136;11.386;2024-02-14T01:48:00;95764.47;;;7.80;55.92
79577;BME280;69045;48.136;11.386;2024-02-14T01:50:29;95766.25;;;7.79;56.11
79577;BME280;69045;48.136;11.386;2024-02-14T01:53:00;95766.88;;;7.81;55.74
79577;BME280;69045;48.136;11.386;2024-02-14T01:55:28;95774.88;;;7.80;55.39
79577;BME280;69045;48.136;11.386;2024-02-14T01:57:56;95773.69;;;7.82;55.31
79577;BME280;69045;48.136;11.386;2024-02-14T02:00:27;95778.53;;;7.85;55.69
79577;BME280;69045;48.136;11.386;2024-02-14T02:02:55;95772.16;;;7.88;54.87
79577;BME280;69045;48.136;11.386;2024-02-14T02:05:24;95769.16;;;7.91;55.31
79577;BME280;69045;48.136;11.386;2024-02-14T02:07:52;95770.75;;;7.92;55.63
79577;BME280;69045;48.136;11.386;2024-02-14T02:10:21;95770.59;;;7.93;54.98
79577;BME280;69045;48.136;11.386;2024-02-14T02:13:09;95771.75;;;7.91;55.21
79577;BME280;69045;48.136;11.386;2024-02-14T02:15:58;95775.34;;;7.90;55.26
79577;BME280;69045;48.136;11.386;2024-02-14T02:18:48;95776.16;;;7.90;55.35
79577;BME280;69045;48.136;11.386;2024-02-14T02:21:36;95777.78;;;7.91;55.07
79577;BME280;69045;48.136;11.386;2024-02-14T02:24:06;95768.53;;;7.89;55.36
79577;BME280;69045;48.136;11.386;2024-02-14T02:26:34;95766.47;;;7.84;55.02
79577;BME280;69045;48.136;11.386;2024-02-14T02:29:22;95766.63;;;7.76;55.32
79577;BME280;69045;48.136;11.386;2024-02-14T02:31:50;95760.78;;;7.74;55.48
79577;BME280;69045;48.136;11.386;2024-02-14T02:34:19;95762.41;;;7.75;55.61
79577;BME280;69045;48.136;11.386;2024-02-14T02:36:47;95761.41;;;7.76;56.00
79577;BME280;69045;48.136;11.386;2024-02-14T02:39:37;95756.00;;;7.78;55.19
79577;BME280;69045;48.136;11.386;2024-02-14T02:42:26;95757.59;;;7.79;55.81
79577;BME280;69045;48.136;11.386;2024-02-14T02:45:15;95754.59;;;7.54;56.23
79577;BME280;69045;48.136;11.386;2024-02-14T02:48:04;95758.06;;;7.61;56.46
79577;BME280;69045;48.136;11.386;2024-02-14T02:50:53;95755.47;;;7.61;56.72
79577;BME280;69045;48.136;11.386;2024-02-14T02:53:39;95764.34;;;7.66;56.79
79577;BME280;69045;48.136;11.386;2024-02-14T02:56:29;95760.00;;;7.74;56.49
79577;BME280;69045;48.136;11.386;2024-02-14T02:58:57;95764.47;;;7.80;55.84
79577;BME280;69045;48.136;11.386;2024-02-14T03:01:24;95770.28;;;7.82;55.86
79577;BME280;69045;48.136;11.386;2024-02-14T03:04:15;95760.84;;;7.81;55.70
79577;BME280;69045;48.136;11.386;2024-02-14T03:07:03;95753.53;;;7.70;55.71
79577;BME280;69045;48.136;11.386;2024-02-14T03:09:53;95762.16;;;7.70;55.56
79577;BME280;69045;48.136;11.386;2024-02-14T03:12:42;95769.63;;;7.73;55.33
79577;BME280;69045;48.136;11.386;2024-02-14T03:15:30;95766.81;;;7.75;55.49
79577;BME280;69045;48.136;11.386;2024-02-14T03:17:59;95762.41;;;7.75;55.15
79577;BME280;69045;48.136;11.386;2024-02-14T03:20:28;95763.22;;;7.76;54.86
79577;BME280;69045;48.136;11.386;2024-02-14T03:22:57;95760.59;;;7.76;54.72
79577;BME280;69045;48.136;11.386;2024-02-14T03:25:25;95761.53;;;7.68;54.90
79577;BME280;69045;48.136;11.386;2024-02-14T03:28:00;95766.16;;;7.66;55.04
79577;BME280;69045;48.136;11.386;2024-02-14T03:30:32;95771.72;;;7.63;55.19
79577;BME280;69045;48.136;11.386;2024-02-14T03:33:00;95768.50;;;7.61;55.43
79577;BME280;69045;48.136;11.386;2024-02-14T03:35:31;95763.03;;;7.56;55.03
79577;BME280;69045;48.136;11.386;2024-02-14T03:38:01;95770.44;;;7.52;55.64
79577;BME280;69045;48.136;11.386;2024-02-14T03:40:30;95772.84;;;7.54;55.65
79577;BME280;69045;48.136;11.386;2024-02-14T03:42:58;95776.06;;;7.56;55.14
79577;BME280;69045;48.136;11.386;2024-02-14T03:45:27;95776.44;;;7.53;55.57
79577;BME280;69045;48.136;11.386;2024-02-14T03:47:56;95777.00;;;7.48;55.72
79577;BME280;69045;48.136;11.386;2024-02-14T03:50:24;95775.38;;;7.47;55.46
79577;BME280;69045;48.136;11.386;2024-02-14T03:52:52;95767.56;;;7.47;55.49
79577;BME280;69045;48.136;11.386;2024-02-14T03:55:21;95770.72;;;7.43;55.57
79577;BME280;69045;48.136;11.386;2024-02-14T03:57:50;95769.31;;;7.40;54.92
79577;BME280;69045;48.136;11.386;2024-02-14T04:00:18;95777.25;;;7.32;55.09
79577;BME280;69045;48.136;11.386;2024-02-14T04:02:50;95768.78;;;7.30;55.08
79577;BME280;69045;48.136;11.386;2024-02-14T04:05:25;95763.75;;;7.28;55.33
79577;BME280;69045;48.136;11.386;2024-02-14T04:07:54;95766.38;;;7.28;55.26
79577;BME280;69045;48.136;11.386;2024-02-14T04:10:22;95763.75;;;7.28;54.76
79577;BME280;69045;48.136;11.386;2024-02-14T04:12:51;95761.69;;;7.24;54.90
79577;BME280;69045;48.136;11.386;2024-02-14T04:15:19;95768.09;;;7.21;55.07
79577;BME280;69045;48.136;11.386;2024-02-14T04:17:53;95763.00;;;7.13;54.76
79577;BME280;69045;48.136;11.386;2024-02-14T04:20:21;95764.97;;;7.11;54.89
79577;BME280;69045;48.136;11.386;2024-02-14T04:22:49;95765.88;;;6.52;57.42
79577;BME280;69045;48.136;11.386;2024-02-14T04:25:17;95761.44;;;6.68;56.75
79577;BME280;69045;48.136;11.386;2024-02-14T04:27:45;95770.03;;;6.83;55.77
79577;BME280;69045;48.136;11.386;2024-02-14T04:30:13;95768.53;;;6.89;56.32
79577;BME280;69045;48.136;11.386;2024-02-14T04:33:03;95764.84;;;6.98;56.23
79577;BME280;69045;48.136;11.386;2024-02-14T04:35:33;95768.13;;;7.06;55.88
79577;BME280;69045;48.136;11.386;2024-02-14T04:38:00;95769.00;;;7.14;55.77
79577;BME280;69045;48.136;11.386;2024-02-14T04:40:29;95772.69;;;7.19;55.64
79577;BME280;69045;48.136;11.386;2024-02-14T04:42:57;95770.25;;;7.18;54.60
79577;BME280;69045;48.136;11.386;2024-02-14T04:45:25;95766.69;;;7.19;55.57
79577;BME280;69045;48.136;11.386;2024-02-14T04:47:59;95768.72;;;7.23;55.66
79577;BME280;69045;48.136;11.386;2024-02-14T04:50:29;95775.38;;;7.26;54.88
79577;BME280;69045;48.136;11.386;2024-02-14T04:52:58;95774.19;;;7.28;54.87
79577;BME280;69045;48.136;11.386;2024-02-14T04:55:26;95777.59;;;7.29;55.20
79577;BME280;69045;48.136;11.386;2024-02-14T04:57:56;95779.47;;;7.35;54.88
79577;BME280;69045;48.136;11.386;2024-02-14T05:00:25;95775.13;;;7.42;54.53
79577;BME280;69045;48.136;11.386;2024-02-14T05:02:54;95772.16;;;7.45;54.46
79577;BME280;69045;48.136;11.386;2024-02-14T05:05:23;95769.16;;;7.48;54.13
79577;BME280;69045;48.136;11.386;2024-02-14T05:07:55;95756.56;;;7.52;53.86
79577;BME280;69045;48.136;11.386;2024-02-14T05:10:25;95763.03;;;7.56;53.64
79577;BME280;69045;48.136;11.386;2024-02-14T05:12:53;95761.66;;;7.60;53.28
79577;BME280;69045;48.136;11.386;2024-02-14T05:15:21;95753.84;;;7.60;53.44
79577;BME280;69045;48.136;11.386;2024-02-14T05:17:49;95754.28;;;7.63;53.42
79577;BME280;69045;48.136;11.386;2024-02-14T05:20:17;95752.31;;;7.65;52.94
79577;BME280;69045;48.136;11.386;2024-02-14T05:22:45;95755.88;;;7.64;53.41
79577;BME280;69045;48.136;11.386;2024-02-14T05:25:14;95762.53;;;7.67;52.80
79577;BME280;69045;48.136;11.386;2024-02-14T05:27:52;95771.59;;;7.71;52.79
79577;BME280;69045;48.136;11.386;2024-02-14T05:30:20;95769.16;;;7.70;53.52
79577;BME280;69045;48.136;11.386;2024-02-14T05:32:58;95764.34;;;7.66;53.00
79577;BME280;69045;48.136;11.386;2024-02-14T05:35:26;95766.75;;;7.68;53.61
79577;BME280;69045;48.136;11.386;2024-02-14T05:37:54;95769.78;;;7.72;53.19
79577;BME280;69045;48.136;11.386;2024-02-14T05:40:23;95775.19;;;7.70;52.99
79577;BME280;69045;48.136;11.386;2024-02-14T05:42:52;95774.19;;;7.71;53.21
79577;BME280;69045;48.136;11.386;2024-02-14T05:45:20;95778.06;;;7.75;53.43
79577;BME280;69045;48.136;11.386;2024-02-14T05:47:48;95773.88;;;7.81;53.39
79577;BME280;69045;48.136;11.386;2024-02-14T05:50:17;95777.31;;;7.81;52.66
79577;BME280;69045;48.136;11.386;2024-02-14T05:52:45;95780.16;;;7.86;52.69
79577;BME280;69045;48.136;11.386;2024-02-14T05:55:14;95777.97;;;7.90;52.64
79577;BME280;69045;48.136;11.386;2024-02-14T05:57:51;95785.25;;;7.94;52.36
79577;BME280;69045;48.136;11.386;2024-02-14T06:00:21;95782.25;;;7.98;52.14
79577;BME280;69045;48.136;11.386;2024-02-14T06:02:54;95793.13;;;8.01;52.67
79577;BME280;69045;48.136;11.386;2024-02-14T06:05:22;95791.31;;;8.02;52.60
79577;BME280;69045;48.136;11.386;2024-02-14T06:07:50;95789.50;;;8.02;52.62
79577;BME280;69045;48.136;11.386;2024-02-14T06:10:18;95791.06;;;7.97;52.34
79577;BME280;69045;48.136;11.386;2024-02-14T06:12:46;95788.25;;;7.98;52.64
79577;BME280;69045;48.136;11.386;2024-02-14T06:15:16;95793.72;;;8.03;52.27
79577;BME280;69045;48.136;11.386;2024-02-14T06:17:44;95789.75;;;8.07;52.12
79577;BME280;69045;48.136;11.386;2024-02-14T06:20:12;95794.38;;;8.12;52.40
79577;BME280;69045;48.136;11.386;2024-02-14T06:22:41;95798.06;;;8.17;52.62
79577;BME280;69045;48.136;11.386;2024-02-14T06:25:22;95792.88;;;8.24;52.33
79577;BME280;69045;48.136;11.386;2024-02-14T06:27:58;95794.31;;;8.27;52.40
79577;BME280;69045;48.136;11.386;2024-02-14T06:30:28;95797.34;;;8.30;52.18
79577;BME280;69045;48.136;11.386;2024-02-14T06:32:59;95803.00;;;8.34;51.80
79577;BME280;69045;48.136;11.386;2024-02-14T06:35:29;95807.06;;;8.36;52.30
79577;BME280;69045;48.136;11.386;2024-02-14T06:37:58;95809.66;;;8.36;52.10
79577;BME280;69045;48.136;11.386;2024-02-14T06:40:31;95808.09;;;8.42;51.84
79577;BME280;69045;48.136;11.386;2024-02-14T06:42:59;95805.09;;;8.45;51.82
79577;BME280;69045;48.136;11.386;2024-02-14T06:45:29;95807.50;;;8.46;51.81
79577;BME280;69045;48.136;11.386;2024-02-14T06:48:07;95812.38;;;8.50;51.49
79577;BME280;69045;48.136;11.386;2024-02-14T06:50:36;95811.81;;;8.54;51.74
79577;BME280;69045;48.136;11.386;2024-02-14T06:53:06;95813.03;;;8.58;51.12
79577;BME280;69045;48.136;11.386;2024-02-14T06:55:34;95817.69;;;8.63;51.11
79577;BME280;69045;48.136;11.386;2024-02-14T06:58:02;95821.50;;;8.67;51.33
79577;BME280;69045;48.136;11.386;2024-02-14T07:00:33;95820.75;;;8.73;51.49
79577;BME280;69045;48.136;11.386;2024-02-14T07:03:02;95827.00;;;8.79;51.15
79577;BME280;69045;48.136;11.386;2024-02-14T07:05:30;95823.63;;;8.85;51.47
79577;BME280;69045;48.136;11.386;2024-02-14T07:07:58;95833.31;;;8.91;51.46
79577;BME280;69045;48.136;11.386;2024-02-14T07:10:26;95830.13;;;8.95;50.74
79577;BME280;69045;48.136;11.386;2024-02-14T07:12:54;95833.94;;;8.99;51.93
79577;BME280;69045;48.136;11.386;2024-02-14T07:15:22;95837.59;;;9.05;51.37
79577;BME280;69045;48.136;11.386;2024-02-14T07:17:57;95848.66;;;9.07;50.92
79577;BME280;69045;48.136;11.386;2024-02-14T07:20:25;95847.66;;;9.01;50.87
79577;BME280;69045;48.136;11.386;2024-02-14T07:22:54;95839.00;;;9.01;50.92
79577;BME280;69045;48.136;11.386;2024-02-14T07:25:23;95844.03;;;9.02;51.48
79577;BME280;69045;48.136;11.386;2024-02-14T07:27:51;95843.44;;;9.07;51.28
79577;BME280;69045;48.136;11.386;2024-02-14T07:30:19;95848.66;;;9.07;51.18
79577;BME280;69045;48.136;11.386;2024-02-14T07:32:47;95850.47;;;9.07;50.97
79577;BME280;69045;48.136;11.386;2024-02-14T07:35:17;95848.88;;;9.12;52.51
79577;BME280;69045;48.136;11.386;2024-02-14T07:37:45;95846.53;;;9.24;51.65
79577;BME280;69045;48.136;11.386;2024-02-14T07:40:14;95858.22;;;9.28;51.11
79577;BME280;69045;48.136;11.386;2024-02-14T07:43:00;95863.28;;;9.36;51.06
79577;BME280;69045;48.136;11.386;2024-02-14T07:45:28;95857.44;;;9.41;50.70
79577;BME280;69045;48.136;11.386;2024-02-14T07:47:56;95861.88;;;9.40;50.67
79577;BME280;69045;48.136;11.386;2024-02-14T07:50:26;95856.66;;;9.47;50.76
79577;BME280;69045;48.136;11.386;2024-02-14T07:52:55;95862.94;;;9.52;50.58
79577;BME280;69045;48.136;11.386;2024-02-14T07:55:23;95858.72;;;9.58;50.72
79577;BME280;69045;48.136;11.386;2024-02-14T07:57:51;95855.13;;;9.66;50.73
79577;BME280;69045;48.136;11.386;2024-02-14T08:00:20;95857.56;;;9.74;50.11
79577;BME280;69045;48.136;11.386;2024-02-14T08:02:50;95859.00;;;9.83;50.46
79577;BME280;69045;48.136;11.386;2024-02-14T08:05:18;95864.44;;;9.95;49.57
79577;BME280;69045;48.136;11.386;2024-02-14T08:07:48;95858.22;;;10.09;50.61
79577;BME280;69045;48.136;11.386;2024-02-14T08:10:16;95853.66;;;10.24;48.74
79577;BME280;69045;48.136;11.386;2024-02-14T08:12:44;95855.28;;;10.38;48.43
79577;BME280;69045;48.136;11.386;2024-02-14T08:15:13;95854.03;;;10.54;48.88
79577;BME280;69045;48.136;11.386;2024-02-14T08:17:41;95859.69;;;10.71;48.27
79577;BME280;69045;48.136;11.386;2024-02-14T08:20:13;95860.84;;;10.88;48.39
79577;BME280;69045;48.136;11.386;2024-02-14T08:22:53;95865.25;;;11.08;48.28
79577;BME280;69045;48.136;11.386;2024-02-14T08:25:21;95854.28;;;11.31;46.80
79577;BME280;69045;48.136;11.386;2024-02-14T08:27:49;95859.28;;;11.45;45.63
79577;BME280;69045;48.136;11.386;2024-02-14T08:30:18;95862.25;;;11.56;45.39
79577;BME280;69045;48.136;11.386;2024-02-14T08:32:46;95860.81;;;11.66;44.98
79577;BME280;69045;48.136;11.386;2024-02-14T08:35:22;95856.69;;;11.77;45.02
79577;BME280;69045;48.136;11.386;2024-02-14T08:37:50;95860.53;;;11.88;44.28
79577;BME280;69045;48.136;11.386;2024-02-14T08:40:19;95865.69;;;12.01;44.60
79577;BME280;69045;48.136;11.386;2024-02-14T08:42:48;95856.31;;;12.12;44.32
79577;BME280;69045;48.136;11.386;2024-02-14T08:45:16;95853.16;;;12.35;43.19
79577;BME280;69045;48.136;11.386;2024-02-14T08:47:44;95860.44;;;13.01;42.99
79577;BME280;69045;48.136;11.386;2024-02-14T08:50:12;95855.66;;;13.34;41.66
79577;BME280;69045;48.136;11.386;2024-02-14T08:52:41;95848.28;;;13.43;40.98
79577;BME280;69045;48.136;11.386;2024-02-14T08:55:09;95861.69;;;13.53;40.59
79577;BME280;69045;48.136;11.386;2024-02-14T08:57:45;95862.13;;;13.69;40.51
79577;BME280;69045;48.136;11.386;2024-02-14T09:00:15;95857.50;;;13.82;41.51
79577;BME280;69045;48.136;11.386;2024-02-14T09:02:47;95859.97;;;13.96;40.16
79577;BME280;69045;48.136;11.386;2024-02-14T09:05:18;95858.59;;;14.05;39.92
79577;BME280;69045;48.136;11.386;2024-02-14T09:07:46;95861.00;;;14.06;39.64
79577;BME280;69045;48.136;11.386;2024-02-14T09:10:14;95854.47;;;14.09;39.52
79577;BME280;69045;48.136;11.386;2024-02-14T09:12:43;95855.66;;;14.13;39.31
79577;BME280;69045;48.136;11.386;2024-02-14T09:15:12;95852.66;;;14.09;39.41
79577;BME280;69045;48.136;11.386;2024-02-14T09:17:41;95846.28;;;14.17;39.24
79577;BME280;69045;48.136;11.386;2024-02-14T09:20:10;95848.34;;;14.27;38.29
79577;BME280;69045;48.136;11.386;2024-02-14T09:22:41;95851.34;;;14.30;38.21
79577;BME280;69045;48.136;11.386;2024-02-14T09:25:09;95853.88;;;14.37;37.85
79577;BME280;69045;48.136;11.386;2024-02-14T09:27:37;95848.78;;;14.65;37.59
79577;BME280;69045;48.136;11.386;2024-02-14T09:30:07;95847.16;;;14.76;37.62
79577;BME280;69045;48.136;11.386;2024-02-14T09:32:48;95844.06;;;14.67;37.54
79577;BME280;69045;48.136;11.386;2024-02-14T09:35:17;95839.72;;;14.61;37.88
79577;BME280;69045;48.136;11.386;2024-02-14T09:37:45;95846.50;;;14.57;38.32
79577;BME280;69045;48.136;11.386;2024-02-14T09:40:14;95842.56;;;14.48;38.20
79577;BME280;69045;48.136;11.386;2024-02-14T09:42:44;95840.59;;;14.43;37.92
79577;BME280;69045;48.136;11.386;2024-02-14T09:45:15;95844.47;;;14.41;38.14
79577;BME280;69045;48.136;11.386;2024-02-14T09:47:51;95852.16;;;14.42;38.22
79577;BME280;69045;48.136;11.386;2024-02-14T09:50:21;95851.56;;;14.40;38.18
79577;BME280;69045;48.136;11.386;2024-02-14T09:52:49;95849.41;;;14.37;38.67
79577;BME280;69045;48.136;11.386;2024-02-14T09:55:17;95848.38;;;14.38;38.24
79577;BME280;69045;48.136;11.386;2024-02-14T09:57:46;95843.00;;;14.45;38.31
79577;BME280;69045;48.136;11.386;2024-02-14T10:00:17;95840.31;;;14.63;38.06
79577;BME280;69045;48.136;11.386;2024-02-14T10:02:46;95846.34;;;14.75;37.86
79577;BME280;69045;48.136;11.386;2024-02-14T10:05:16;95844.53;;;14.88;37.86
79577;BME280;69045;48.136;11.386;2024-02-14T10:07:44;95835.66;;;15.29;37.14
79577;BME280;69045;48.136;11.386;2024-02-14T10:10:13;95833.31;;;15.84;35.80
79577;BME280;69045;48.136;11.386;2024-02-14T10:12:42;95838.09;;;16.16;35.95
79577;BME280;69045;48.136;11.386;2024-02-14T10:15:10;95835.66;;;16.60;35.05
79577;BME280;69045;48.136;11.386;2024-02-14T10:17:38;95826.97;;;16.98;34.37
79577;BME280;69045;48.136;11.386;2024-02-14T10:20:09;95833.91;;;17.21;34.58
79577;BME280;69045;48.136;11.386;2024-02-14T10:22:39;95837.47;;;17.32;33.83
79577;BME280;69045;48.136;11.386;2024-02-14T10:25:07;95838.34;;;17.37;33.62
79577;BME280;69045;48.136;11.386;2024-02-14T10:27:36;95837.28;;;17.60;34.34
79577;BME280;69045;48.136;11.386;2024-02-14T10:30:06;95840.00;;;17.65;33.91
79577;BME280;69045;48.136;11.386;2024-02-14T10:32:36;95838.56;;;18.01;33.91
79577;BME280;69045;48.136;11.386;2024-02-14T10:35:05;95834.78;;;18.51;33.38
79577;BME280;69045;48.136;11.386;2024-02-14T10:37:36;95832.09;;;18.78;32.66
79577;BME280;69045;48.136;11.386;2024-02-14T10:40:07;95840.41;;;18.92;32.09
79577;BME280;69045;48.136;11.386;2024-02-14T10:42:37;95832.16;;;20.19;31.76
79577;BME280;69045;48.136;11.386;2024-02-14T10:45:06;95830.34;;;20.55;30.67
79577;BME280;69045;48.136;11.386;2024-02-14T10:47:46;95833.81;;;20.61;31.21
79577;BME280;69045;48.136;11.386;2024-02-14T10:50:18;95831.13;;;20.40;30.33
79577;BME280;69045;48.136;11.386;2024-02-14T10:52:49;95829.25;;;20.41;30.60
79577;BME280;69045;48.136;11.386;2024-02-14T10:55:24;95831.31;;;21.31;29.54
79577;BME280;69045;48.136;11.386;2024-02-14T10:57:58;95835.78;;;22.10;29.74
79577;BME280;69045;48.136;11.386;2024-02-14T11:00:29;95837.56;;;22.25;28.74
79577;BME280;69045;48.136;11.386;2024-02-14T11:03:00;95834.91;;;22.25;28.30
79577;BME280;69045;48.136;11.386;2024-02-14T11:05:31;95835.19;;;22.18;28.61
79577;BME280;69045;48.136;11.386;2024-02-14T11:08:08;95840.53;;;21.64;28.93
79577;BME280;69045;48.136;11.386;2024-02-14T11:10:38;95833.41;;;21.44;29.59
79577;BME280;69045;48.136;11.386;2024-02-14T11:13:10;95830.53;;;21.10;29.48
79577;BME280;69045;48.136;11.386;2024-02-14T11:15:40;95830.09;;;20.67;30.08
79577;BME280;69045;48.136;11.386;2024-02-14T11:18:08;95827.34;;;20.16;31.26
79577;BME280;69045;48.136;11.386;2024-02-14T11:20:37;95835.03;;;19.87;31.87
79577;BME280;69045;48.136;11.386;2024-02-14T11:23:07;95829.81;;;19.55;31.95
79577;BME280;69045;48.136;11.386;2024-02-14T11:25:39;95816.69;;;19.28;32.78
79577;BME280;69045;48.136;11.386;2024-02-14T11:28:15;95822.44;;;19.04;33.26
79577;BME280;69045;48.136;11.386;2024-02-14T11:30:44;95824.69;;;18.86;33.82
79577;BME280;69045;48.136;11.386;2024-02-14T11:33:17;95819.88;;;18.77;33.98
79577;BME280;69045;48.136;11.386;2024-02-14T11:35:50;95816.34;;;18.67;34.12
79577;BME280;69045;48.136;11.386;2024-02-14T11:38:20;95818.59;;;18.53;34.31
79577;BME280;69045;48.136;11.386;2024-02-14T11:40:50;95817.97;;;18.41;34.20
79577;BME280;69045;48.136;11.386;2024-02-14T11:43:21;95810.47;;;18.33;34.85
79577;BME280;69045;48.136;11.386;2024-02-14T11:45:50;95819.16;;;18.23;35.21
79577;BME280;69045;48.136;11.386;2024-02-14T11:48:20;95810.59;;;18.16;35.29
79577;BME280;69045;48.136;11.386;2024-02-14T11:50:52;95806.31;;;18.10;35.63
79577;BME280;69045;48.136;11.386;2024-02-14T11:53:22;95805.25;;;18.11;36.28
79577;BME280;69045;48.136;11.386;2024-02-14T11:55:52;95800.28;;;18.19;35.80
79577;BME280;69045;48.136;11.386;2024-02-14T11:58:20;95806.72;;;18.28;35.16
79577;BME280;69045;48.136;11.386;2024-02-14T12:00:48;95803.84;;;18.30;35.24
79577;BME280;69045;48.136;11.386;2024-02-14T12:03:18;95801.66;;;18.27;35.51
79577;BME280;69045;48.136;11.386;2024-02-14T12:05:49;95802.78;;;18.31;35.70
79577;BME280;69045;48.136;11.386;2024-02-14T12:08:20;95798.84;;;18.39;35.58
79577;BME280;69045;48.136;11.386;2024-02-14T12:10:49;95795.19;;;18.45;35.24
79577;BME280;69045;48.136;11.386;2024-02-14T12:13:20;95799.13;;;18.42;35.03
79577;BME280;69045;48.136;11.386;2024-02-14T12:15:50;95801.75;;;18.37;35.46
79577;BME280;69045;48.136;11.386;2024-02-14T12:18:20;95807.56;;;18.34;34.70
79577;BME280;69045;48.136;11.386;2024-02-14T12:20:49;95801.38;;;18.23;33.97
79577;BME280;69045;48.136;11.386;2024-02-14T12:23:22;95798.88;;;18.12;34.11
79577;BME280;69045;48.136;11.386;2024-02-14T12:25:53;95806.50;;;18.03;34.30
79577;BME280;69045;48.136;11.386;2024-02-14T12:28:23;95806.41;;;17.93;34.58
79577;BME280;69045;48.136;11.386;2024-02-14T12:30:51;95794.19;;;17.92;34.29
79577;BME280;69045;48.136;11.386;2024-02-14T12:33:24;95786.03;;;17.98;34.50
79577;BME280;69045;48.136;11.386;2024-02-14T12:35:54;95786.91;;;18.04;34.99
79577;BME280;69045;48.136;11.386;2024-02-14T12:38:24;95792.53;;;18.13;34.69
79577;BME280;69045;48.136;11.386;2024-02-14T12:40:52;95799.69;;;18.12;34.77
79577;BME280;69045;48.136;11.386;2024-02-14T12:43:22;95793.03;;;18.10;35.84
79577;BME280;69045;48.136;11.386;2024-02-14T12:45:51;95799.34;;;18.04;36.96
79577;BME280;69045;48.136;11.386;2024-02-14T12:48:22;95794.47;;;17.90;37.16
79577;BME280;69045;48.136;11.386;2024-02-14T12:50:51;95792.19;;;17.77;38.51
79577;BME280;69045;48.136;11.386;2024-02-14T12:53:19;95799.16;;;17.61;39.79
79577;BME280;69045;48.136;11.386;2024-02-14T12:55:48;95792.88;;;17.45;40.08
79577;BME280;69045;48.136;11.386;2024-02-14T12:58:16;95799.78;;;17.46;40.47
79577;BME280;69045;48.136;11.386;2024-02-14T13:00:45;95797.88;;;17.42;41.16
79577;BME280;69045;48.136;11.386;2024-02-14T13:03:14;95795.84;;;17.49;41.26
79577;BME280;69045;48.136;11.386;2024-02-14T13:05:44;95797.78;;;17.59;40.70
79577;BME280;69045;48.136;11.386;2024-02-14T13:08:14;95786.53;;;17.68;40.60
79577;BME280;69045;48.136;11.386;2024-02-14T13:10:43;95791.66;;;17.75;39.95
79577;BME280;69045;48.136;11.386;2024-02-14T13:13:12;95793.59;;;17.85;39.72